KEP weather

Nepalgunj Airport
Nepalgunj, Bheri, Nepal

Public forecast

Using degrees Celsius for public forecast. Weather courtesy of forecast.io.

METAR (pilot weather report)

Closest report is Chaudhary Charan Singh International Airport, 90.7 nm (167.9 km) SSW. Retrieved 2019/08/24 10:30 UTC (0 seconds ago):

VILK 241030Z 07005KT 2000 -TSRA SCT010 SCT018 FEW030CB OVC090 26/25 Q1002 NOSIG

TAF (pilot weather forecast)

Closest forecast is Chaudhary Charan Singh International Airport, 90.7 nm (167.9 km) SSW. Retrieved 2019/08/24 06:00 UTC (4 hours ago):

TAF VILK 240500Z 2406/2512 12005KT 3000 BR -RA SCT018 SCT020 BKN090 BECMG 2408/2410 14005KT 5000 HZ TEMPO 2406/2410 1000 -RA TSRA SCT010 SCT015 FEW030CB OVC080 BECMG 2420/2422 VRB02KT 2500 BR BECMG 2502/2504 VRB02KT 3000 BR BECMG 2507/2509 14006KT 5000 HZ TEMPO 2500/2504 1500 -RA TSRA SCT010 SCT020 FEW030CB OVC080